createdAt,value
2022-08-05T00:00:23.210Z,100981.81
2022-08-05T00:02:07.711Z,100985.97
2022-08-05T00:03:40.063Z,100981.91
2022-08-05T00:06:01.666Z,100976.53
2022-08-05T00:07:21.763Z,100973.00
2022-08-05T00:08:58.311Z,100982.75
2022-08-05T00:10:30.028Z,100988.13
2022-08-05T00:12:01.786Z,100996.34
2022-08-05T00:13:38.816Z,100996.59
2022-08-05T00:15:54.031Z,100989.09
2022-08-05T00:17:03.684Z,100992.09
2022-08-05T00:18:50.758Z,100984.69
2022-08-05T00:20:22.535Z,100990.19
2022-08-05T00:22:01.230Z,100992.13
2022-08-05T00:23:46.717Z,100992.47
2022-08-05T00:25:24.758Z,100995.06
2022-08-05T00:26:57.717Z,100994.53
2022-08-05T00:28:30.466Z,100996.34
2022-08-05T00:30:11.602Z,100995.38
2022-08-05T00:31:54.400Z,100992.59
2022-08-05T00:34:55.988Z,100994.06
2022-08-05T00:35:33.168Z,100986.50
2022-08-05T00:37:12.979Z,100980.69
2022-08-05T00:38:45.791Z,100976.28
2022-08-05T00:40:28.374Z,100974.81
2022-08-05T00:42:00.879Z,100966.56
2022-08-05T00:43:47.302Z,100968.50
2022-08-05T00:45:28.101Z,100967.78
2022-08-05T00:47:12.005Z,100975.94
2022-08-05T00:48:51.458Z,100968.25
2022-08-05T00:50:25.391Z,100978.50
2022-08-05T00:51:57.523Z,100983.47
2022-08-05T00:53:45.421Z,100985.78
2022-08-05T00:55:21.381Z,100978.72
2022-08-05T00:56:53.692Z,100992.19
2022-08-05T00:58:27.330Z,101003.75
2022-08-05T00:59:59.433Z,100989.22
2022-08-05T01:01:48.199Z,100990.31
2022-08-05T01:03:22.832Z,100990.50
2022-08-05T01:04:54.993Z,100995.16
2022-08-05T01:06:32.401Z,100998.28
2022-08-05T01:08:40.069Z,100996.53
2022-08-05T01:09:58.101Z,100997.75
2022-08-05T01:11:37.180Z,100992.78
2022-08-05T01:13:19.430Z,100984.16
2022-08-05T01:15:00.069Z,100992.13
2022-08-05T01:16:46.000Z,100991.34
2022-08-05T01:18:25.270Z,100997.03
2022-08-05T01:20:11.385Z,100989.97
2022-08-05T01:22:15.482Z,100989.13
2022-08-05T01:24:02.986Z,100980.38
2022-08-05T01:26:00.191Z,100985.81
2022-08-05T01:28:13.689Z,100968.34
2022-08-05T01:29:49.538Z,100966.75
2022-08-05T01:31:30.403Z,100977.75
2022-08-05T01:33:08.633Z,100989.53
2022-08-05T01:34:48.567Z,100998.53
2022-08-05T01:36:28.190Z,101010.50
2022-08-05T01:38:03.084Z,101000.16
2022-08-05T01:39:47.178Z,101003.72
2022-08-05T01:41:25.541Z,101001.81
2022-08-05T01:43:03.686Z,101005.94
2022-08-05T01:44:38.882Z,101016.19
2022-08-05T01:46:16.493Z,101034.41
2022-08-05T01:48:10.386Z,101043.91
2022-08-05T01:50:01.667Z,101047.16
2022-08-05T01:51:36.187Z,101060.19
2022-08-05T01:53:12.776Z,101072.22
2022-08-05T01:54:52.832Z,101085.69
2022-08-05T01:58:10.808Z,101101.31
2022-08-05T01:58:40.944Z,101118.13
2022-08-05T02:00:30.389Z,101119.94
2022-08-05T02:02:04.522Z,101111.53
2022-08-05T02:03:46.631Z,101127.34
2022-08-05T02:05:23.389Z,101129.69
2022-08-05T02:06:56.415Z,101136.66
2022-08-05T02:08:31.623Z,101132.88
2022-08-05T02:10:04.825Z,101130.88
2022-08-05T02:11:47.896Z,101119.31
2022-08-05T02:13:28.197Z,101111.84
2022-08-05T02:15:26.196Z,101102.19
2022-08-05T02:17:08.196Z,101112.09
2022-08-05T02:18:53.295Z,101107.31
2022-08-05T02:20:27.888Z,101096.03
2022-08-05T02:22:08.968Z,101102.31
2022-08-05T02:23:53.399Z,101093.94
2022-08-05T02:25:33.369Z,101098.22
2022-08-05T02:27:09.145Z,101110.88
2022-08-05T02:28:46.259Z,101125.16
2022-08-05T02:30:20.469Z,101137.88
2022-08-05T02:31:57.116Z,101140.28
2022-08-05T02:33:36.184Z,101139.78
2022-08-05T02:35:19.151Z,101130.16
2022-08-05T02:37:04.354Z,101134.75
2022-08-05T02:38:37.757Z,101147.88
2022-08-05T02:40:10.549Z,101144.00
2022-08-05T02:42:00.429Z,101144.56
2022-08-05T02:43:34.542Z,101129.50
2022-08-05T02:45:28.999Z,101114.22
2022-08-05T02:47:22.444Z,101117.81
2022-08-05T02:48:55.804Z,101108.59
2022-08-05T02:50:29.134Z,101115.16
2022-08-05T02:52:03.807Z,101104.94
2022-08-05T02:53:40.493Z,101099.38
2022-08-05T02:55:13.484Z,101088.03
2022-08-05T02:56:46.056Z,101053.75
2022-08-05T02:58:20.697Z,101031.66
2022-08-05T02:59:54.184Z,101012.22
2022-08-05T03:01:29.376Z,100994.06
2022-08-05T03:03:02.221Z,100988.38
2022-08-05T03:04:40.595Z,100997.22
2022-08-05T03:06:56.336Z,100990.59
2022-08-05T03:08:08.632Z,100956.63
2022-08-05T03:09:51.599Z,100952.97
2022-08-05T03:11:56.678Z,100961.75
2022-08-05T03:13:18.029Z,100976.84
2022-08-05T03:14:49.710Z,100977.03
2022-08-05T03:16:21.971Z,100978.19
2022-08-05T03:17:57.876Z,100997.28
2022-08-05T03:19:33.884Z,100989.28
2022-08-05T03:21:07.745Z,100993.66
2022-08-05T03:22:46.789Z,100986.28
2022-08-05T03:24:29.598Z,101000.59
2022-08-05T03:26:30.133Z,101003.66
2022-08-05T03:27:59.595Z,101016.34
2022-08-05T03:29:45.959Z,101030.09
2022-08-05T03:31:55.813Z,101034.16
2022-08-05T03:33:18.971Z,101056.03
2022-08-05T03:34:52.321Z,101065.75
2022-08-05T03:36:30.514Z,101071.09
2022-08-05T03:38:02.761Z,101072.06
2022-08-05T03:39:38.303Z,101076.22
2022-08-05T03:41:26.188Z,101078.56
2022-08-05T03:43:58.663Z,101084.56
2022-08-05T03:44:57.049Z,101090.38
2022-08-05T03:46:30.053Z,101093.81
2022-08-05T03:48:05.132Z,101094.28
2022-08-05T03:49:51.636Z,101091.47
2022-08-05T03:52:50.546Z,101093.56
2022-08-05T03:55:53.009Z,101083.50
2022-08-05T03:56:05.809Z,101093.34
2022-08-05T03:57:28.993Z,101091.19
2022-08-05T03:59:20.458Z,101083.56
2022-08-05T04:00:55.620Z,101079.41
2022-08-05T04:02:38.289Z,101075.97
2022-08-05T04:04:21.203Z,101061.44
2022-08-05T04:05:55.169Z,101051.88
2022-08-05T04:07:30.521Z,101038.59
2022-08-05T04:09:08.712Z,101030.44
2022-08-05T04:10:41.545Z,101039.31
2022-08-05T04:12:24.746Z,101036.63
2022-08-05T04:13:56.717Z,101038.88
2022-08-05T04:15:35.906Z,101039.56
2022-08-05T04:17:09.297Z,101035.31
2022-08-05T04:18:45.601Z,101027.22
2022-08-05T04:20:25.511Z,101018.66
2022-08-05T04:22:08.964Z,101008.78
2022-08-05T04:23:57.137Z,101004.06
2022-08-05T04:25:57.928Z,101001.63
2022-08-05T04:27:33.209Z,101008.41
2022-08-05T04:29:14.383Z,101032.47
2022-08-05T04:30:46.630Z,101053.09
2022-08-05T04:32:29.662Z,101053.22
2022-08-05T04:34:31.139Z,101039.59
2022-08-05T04:36:10.860Z,101039.03
2022-08-05T04:38:01.536Z,101045.25
2022-08-05T04:39:38.012Z,101045.44
2022-08-05T04:41:11.126Z,101042.56
2022-08-05T04:42:42.821Z,101044.38
2022-08-05T04:44:29.002Z,101048.88
2022-08-05T04:46:04.027Z,101043.53
2022-08-05T04:47:38.731Z,101056.69
2022-08-05T04:49:18.871Z,101040.66
2022-08-05T04:51:03.513Z,101033.59
2022-08-05T04:52:42.756Z,101039.38
2022-08-05T04:54:19.735Z,101044.81
2022-08-05T04:56:32.810Z,101045.03
2022-08-05T04:57:47.755Z,101044.69
2022-08-05T04:59:23.913Z,101058.00
2022-08-05T05:01:11.054Z,101045.72
2022-08-05T05:02:43.502Z,101051.00
2022-08-05T05:04:15.368Z,101050.56
2022-08-05T05:06:36.165Z,101043.09
2022-08-05T05:07:39.210Z,101048.69
2022-08-05T05:09:25.857Z,101042.41
2022-08-05T05:10:57.833Z,101043.47
2022-08-05T05:12:29.719Z,101042.50
2022-08-05T05:14:03.311Z,101047.00
2022-08-05T05:15:56.141Z,101054.00
2022-08-05T05:17:56.949Z,101058.06
2022-08-05T05:19:19.176Z,101049.72
2022-08-05T05:20:55.199Z,101036.88
2022-08-05T05:22:27.057Z,101046.72
2022-08-05T05:24:03.951Z,101044.06
2022-08-05T05:25:43.424Z,101059.97
2022-08-05T05:27:19.523Z,101064.63
2022-08-05T05:28:52.794Z,101063.97
2022-08-05T05:30:31.108Z,101061.81
2022-08-05T05:32:06.291Z,101067.66
2022-08-05T05:33:59.222Z,101065.09
2022-08-05T05:35:37.683Z,101065.09
2022-08-05T05:37:09.956Z,101070.53
2022-08-05T05:38:41.608Z,101074.28
2022-08-05T05:40:15.513Z,101073.09
2022-08-05T05:41:54.470Z,101070.75
2022-08-05T05:43:54.290Z,101070.44
2022-08-05T05:45:19.468Z,101086.25
2022-08-05T05:46:51.963Z,101083.47
2022-08-05T05:48:27.655Z,101080.81
2022-08-05T05:50:01.550Z,101088.81
2022-08-05T05:51:50.403Z,101087.00
2022-08-05T05:53:23.060Z,101091.03
2022-08-05T05:54:54.822Z,101091.03
2022-08-05T05:56:32.217Z,101088.63
2022-08-05T05:58:07.062Z,101093.34
2022-08-05T05:59:40.909Z,101094.16
2022-08-05T06:01:15.511Z,101091.03
2022-08-05T06:02:50.529Z,101089.34
2022-08-05T06:04:22.394Z,101089.88
2022-08-05T06:05:55.673Z,101088.28
2022-08-05T06:07:41.710Z,101085.91
2022-08-05T06:09:17.103Z,101088.66
2022-08-05T06:10:52.810Z,101094.53
2022-08-05T06:12:27.162Z,101085.78
2022-08-05T06:14:01.306Z,101098.75
2022-08-05T06:16:30.748Z,101105.34
2022-08-05T06:17:30.917Z,101094.22
2022-08-05T06:19:05.954Z,101090.59
2022-08-05T06:20:39.305Z,101095.06
2022-08-05T06:22:11.103Z,101104.09
2022-08-05T06:23:43.609Z,101112.72
2022-08-05T06:25:24.551Z,101122.69
2022-08-05T06:26:56.603Z,101120.72
2022-08-05T06:28:28.877Z,101120.22
2022-08-05T06:30:04.179Z,101119.47
2022-08-05T06:31:39.521Z,101125.56
2022-08-05T06:33:19.049Z,101135.69
2022-08-05T06:34:53.429Z,101129.91
2022-08-05T06:36:26.141Z,101130.38
2022-08-05T06:37:59.535Z,101142.84
2022-08-05T06:39:34.004Z,101138.66
2022-08-05T06:41:07.814Z,101146.78
2022-08-05T06:42:40.387Z,101142.28
2022-08-05T06:44:13.169Z,101149.94
2022-08-05T06:46:03.842Z,101146.75
2022-08-05T06:48:36.459Z,101142.19
2022-08-05T06:50:00.282Z,101144.22
2022-08-05T06:51:23.805Z,101139.09
2022-08-05T06:53:11.172Z,101138.38
2022-08-05T06:54:43.570Z,101138.28
2022-08-05T06:56:26.377Z,101139.53
2022-08-05T06:58:11.557Z,101140.28
2022-08-05T06:59:55.139Z,101134.75
2022-08-05T07:01:32.765Z,101139.34
2022-08-05T07:03:04.670Z,101142.41
2022-08-05T07:04:41.490Z,101154.91
2022-08-05T07:06:15.151Z,101146.03
2022-08-05T07:07:48.934Z,101153.31
2022-08-05T07:09:20.806Z,101158.31
2022-08-05T07:10:56.773Z,101162.59
2022-08-05T07:12:49.073Z,101159.28
2022-08-05T07:14:39.569Z,101160.91
2022-08-05T07:17:59.178Z,101160.91
2022-08-05T07:18:28.930Z,101170.72
2022-08-05T07:20:32.822Z,101175.00
2022-08-05T07:22:00.148Z,101170.72
2022-08-05T07:23:33.138Z,101172.75
2022-08-05T07:25:23.620Z,101173.84
2022-08-05T07:26:57.866Z,101178.09
2022-08-05T07:28:31.106Z,101187.59
2022-08-05T07:30:24.083Z,101189.31
2022-08-05T07:31:55.670Z,101198.06
2022-08-05T07:33:36.855Z,101190.59
2022-08-05T07:36:05.158Z,101194.81
2022-08-05T07:37:01.714Z,101209.00
2022-08-05T07:38:43.217Z,101211.53
2022-08-05T07:40:31.914Z,101218.91
2022-08-05T07:42:13.149Z,101218.28
2022-08-05T07:43:47.019Z,101216.56
2022-08-05T07:45:19.045Z,101216.31
2022-08-05T07:47:10.762Z,101217.31
2022-08-05T07:49:03.821Z,101214.75
2022-08-05T07:50:37.400Z,101219.44
2022-08-05T07:52:10.789Z,101222.75
2022-08-05T07:53:50.021Z,101221.34
2022-08-05T07:56:05.795Z,101225.19
2022-08-05T07:57:41.897Z,101227.75
2022-08-05T07:59:08.555Z,101232.78
2022-08-05T08:00:40.422Z,101234.91
2022-08-05T08:02:15.916Z,101240.88
2022-08-05T08:03:51.379Z,101248.34
2022-08-05T08:05:23.212Z,101244.19
2022-08-05T08:07:00.866Z,101243.75
2022-08-05T08:08:37.282Z,101247.84
2022-08-05T08:10:09.139Z,101249.31
2022-08-05T08:11:40.808Z,101254.00
2022-08-05T08:13:22.166Z,101257.59
2022-08-05T08:15:02.752Z,101259.84
2022-08-05T08:16:50.271Z,101260.91
2022-08-05T08:18:23.240Z,101261.22
2022-08-05T08:20:21.242Z,101264.22
2022-08-05T08:21:48.168Z,101263.94
2022-08-05T08:24:03.315Z,101265.00
2022-08-05T08:25:15.853Z,101273.31
2022-08-05T08:26:50.702Z,101276.34
2022-08-05T08:28:36.445Z,101276.25
2022-08-05T08:30:30.074Z,101277.97
2022-08-05T08:32:03.962Z,101274.09
2022-08-05T08:33:38.257Z,101272.63
2022-08-05T08:35:13.730Z,101276.69
2022-08-05T08:36:48.765Z,101276.47
2022-08-05T08:38:35.486Z,101275.13
2022-08-05T08:40:08.618Z,101278.09
2022-08-05T08:41:51.648Z,101287.47
2022-08-05T08:45:20.396Z,101282.97
2022-08-05T08:45:27.041Z,101282.22
2022-08-05T08:47:03.067Z,101278.59
2022-08-05T08:49:03.089Z,101276.31
2022-08-05T08:50:52.563Z,101281.66
2022-08-05T08:52:24.957Z,101288.72
2022-08-05T08:53:57.079Z,101298.47
2022-08-05T08:56:01.608Z,101288.22
2022-08-05T08:57:22.686Z,101296.44
2022-08-05T08:58:55.157Z,101307.53
2022-08-05T09:00:30.410Z,101305.09
2022-08-05T09:02:08.425Z,101313.13
2022-08-05T09:03:45.242Z,101311.16
2022-08-05T09:05:18.414Z,101317.81
2022-08-05T09:07:10.683Z,101326.59
2022-08-05T09:08:51.234Z,101326.34
2022-08-05T09:10:27.827Z,101328.81
2022-08-05T09:12:13.374Z,101328.31
2022-08-05T09:14:10.065Z,101328.50
2022-08-05T09:15:46.688Z,101327.44
2022-08-05T09:17:40.776Z,101332.88
2022-08-05T09:19:12.050Z,101330.22
2022-08-05T09:20:47.072Z,101341.66
2022-08-05T09:22:30.812Z,101342.41
2022-08-05T09:24:04.942Z,101343.91
2022-08-05T09:26:00.002Z,101347.53
2022-08-05T09:28:05.788Z,101345.19
2022-08-05T09:29:47.632Z,101349.69
2022-08-05T09:31:44.192Z,101341.97
2022-08-05T09:33:15.339Z,101347.75
2022-08-05T09:34:50.477Z,101347.31
2022-08-05T09:36:27.769Z,101346.34
2022-08-05T09:38:12.959Z,101357.16
2022-08-05T09:39:55.893Z,101353.88
2022-08-05T09:41:28.684Z,101356.63
2022-08-05T09:43:08.590Z,101358.56
2022-08-05T09:44:43.058Z,101368.91
2022-08-05T09:46:27.401Z,101371.38
2022-08-05T09:47:59.842Z,101371.47
2022-08-05T09:49:54.561Z,101378.78
2022-08-05T09:51:32.729Z,101377.81
2022-08-05T09:53:13.038Z,101378.47
2022-08-05T09:54:58.698Z,101382.66
2022-08-05T09:56:35.725Z,101385.09
2022-08-05T09:58:10.847Z,101384.03
2022-08-05T09:59:47.686Z,101385.09
2022-08-05T10:01:31.636Z,101381.88
2022-08-05T10:03:09.895Z,101391.16
2022-08-05T10:04:43.876Z,101387.97
2022-08-05T10:06:19.693Z,101389.94
2022-08-05T10:08:34.719Z,101393.00
2022-08-05T10:10:14.108Z,101389.47
2022-08-05T10:11:47.262Z,101390.16
2022-08-05T10:13:31.698Z,101396.34
2022-08-05T10:15:21.751Z,101400.59
2022-08-05T10:16:57.555Z,101400.38
2022-08-05T10:18:31.994Z,101402.31
2022-08-05T10:20:10.890Z,101407.47
2022-08-05T10:21:45.545Z,101414.28
2022-08-05T10:23:34.717Z,101409.72
2022-08-05T10:25:14.225Z,101409.47
2022-08-05T10:26:51.996Z,101420.06
2022-08-05T10:28:29.109Z,101421.75
2022-08-05T10:30:06.913Z,101424.91
2022-08-05T10:32:52.564Z,101429.72
2022-08-05T10:33:45.503Z,101429.03
2022-08-05T10:35:33.863Z,101432.19
2022-08-05T10:37:13.147Z,101428.31
2022-08-05T10:38:48.276Z,101429.13
2022-08-05T10:40:29.509Z,101438.06
2022-08-05T10:42:07.821Z,101434.69
2022-08-05T10:43:50.830Z,101426.03
2022-08-05T10:45:40.164Z,101435.97
2022-08-05T10:47:26.949Z,101430.88
2022-08-05T10:49:10.000Z,101426.59
2022-08-05T10:50:57.812Z,101430.16
2022-08-05T10:52:49.600Z,101429.66
2022-08-05T10:54:28.152Z,101438.81
2022-08-05T10:56:21.038Z,101445.06
2022-08-05T10:58:11.371Z,101437.34
2022-08-05T11:00:01.819Z,101443.03
2022-08-05T11:01:55.145Z,101450.34
2022-08-05T11:03:29.232Z,101447.22
2022-08-05T11:05:05.136Z,101441.97
2022-08-05T11:07:04.840Z,101436.47
2022-08-05T11:08:39.215Z,101448.25
2022-08-05T11:10:22.559Z,101447.41
2022-08-05T11:12:00.919Z,101449.97
2022-08-05T11:13:58.116Z,101447.88
2022-08-05T11:16:00.011Z,101455.31
2022-08-05T11:17:59.193Z,101455.31
2022-08-05T11:20:10.433Z,101451.19
2022-08-05T11:21:32.316Z,101451.50
2022-08-05T11:24:05.601Z,101450.91
2022-08-05T11:26:08.462Z,101450.91
2022-08-05T11:27:51.014Z,101455.06
2022-08-05T11:29:42.687Z,101463.22
2022-08-05T11:31:57.537Z,101460.41
2022-08-05T11:33:34.591Z,101453.31
2022-08-05T11:36:07.633Z,101451.81
2022-08-05T11:38:28.305Z,101457.06
2022-08-05T11:40:03.705Z,101455.19
2022-08-05T11:42:01.070Z,101452.56
2022-08-05T11:44:00.786Z,101454.78
2022-08-05T11:45:23.217Z,101448.88
2022-08-05T11:47:19.942Z,101455.72
2022-08-05T11:48:54.132Z,101457.81
2022-08-05T11:50:26.249Z,101464.81
2022-08-05T11:51:58.093Z,101467.28
2022-08-05T11:53:33.743Z,101466.66
2022-08-05T11:55:13.278Z,101463.13
2022-08-05T11:56:50.287Z,101463.75
2022-08-05T11:58:34.378Z,101460.03
2022-08-05T12:00:25.866Z,101469.91
2022-08-05T12:02:01.789Z,101456.03
2022-08-05T12:03:41.911Z,101452.31
2022-08-05T12:05:28.826Z,101461.59
2022-08-05T12:07:09.218Z,101459.16
2022-08-05T12:08:50.052Z,101457.56
2022-08-05T12:10:38.453Z,101451.78
2022-08-05T12:12:22.565Z,101457.50
2022-08-05T12:14:04.260Z,101450.66
2022-08-05T12:15:38.700Z,101456.91
2022-08-05T12:18:02.693Z,101460.41
2022-08-05T12:19:08.299Z,101462.09
2022-08-05T12:20:40.689Z,101461.50
2022-08-05T12:22:13.772Z,101462.13
2022-08-05T12:23:53.092Z,101465.25
2022-08-05T12:25:28.420Z,101466.03
2022-08-05T12:27:09.422Z,101465.09
2022-08-05T12:28:44.034Z,101474.88
2022-08-05T12:30:22.826Z,101468.47
2022-08-05T12:32:09.709Z,101466.13
2022-08-05T12:33:41.925Z,101473.16
2022-08-05T12:35:16.803Z,101472.31
2022-08-05T12:36:55.381Z,101470.88
2022-08-05T12:38:30.225Z,101474.03
2022-08-05T12:40:10.662Z,101475.97
2022-08-05T12:41:43.538Z,101480.72
2022-08-05T12:43:20.939Z,101475.91
2022-08-05T12:45:01.180Z,101481.59
2022-08-05T12:46:36.592Z,101476.19
2022-08-05T12:48:32.724Z,101484.19
2022-08-05T12:50:13.511Z,101478.84
2022-08-05T12:52:13.050Z,101490.97
2022-08-05T12:53:42.886Z,101487.78
2022-08-05T12:55:23.517Z,101490.75
2022-08-05T12:56:58.344Z,101484.69
2022-08-05T12:58:48.634Z,101487.69
2022-08-05T13:02:02.674Z,101495.50
2022-08-05T13:02:21.101Z,101493.84
2022-08-05T13:04:03.195Z,101497.25
2022-08-05T13:05:39.413Z,101506.97
2022-08-05T13:07:17.287Z,101502.97
2022-08-05T13:08:51.545Z,101516.69
2022-08-05T13:10:25.175Z,101515.72
2022-08-05T13:12:03.834Z,101504.56
2022-08-05T13:14:06.342Z,101523.97
2022-08-05T13:15:41.941Z,101534.47
2022-08-05T13:17:31.977Z,101531.44
2022-08-05T13:19:15.987Z,101534.91
2022-08-05T13:20:49.287Z,101536.63
2022-08-05T13:22:28.025Z,101543.16
2022-08-05T13:24:01.765Z,101556.03
2022-08-05T13:25:51.982Z,101568.38
2022-08-05T13:27:38.403Z,101555.88
2022-08-05T13:29:11.020Z,101555.59
2022-08-05T13:30:51.151Z,101561.28
2022-08-05T13:32:33.005Z,101559.28
2022-08-05T13:34:25.452Z,101553.47
2022-08-05T13:35:57.585Z,101552.50
2022-08-05T13:37:34.449Z,101549.03
2022-08-05T13:39:08.596Z,101556.13
2022-08-05T13:40:59.876Z,101566.06
2022-08-05T13:42:31.923Z,101567.66
2022-08-05T13:44:04.167Z,101574.22
2022-08-05T13:45:38.688Z,101577.03
2022-08-05T13:47:35.649Z,101573.41
2022-08-05T13:49:10.443Z,101581.72
2022-08-05T13:50:43.826Z,101579.13
2022-08-05T13:52:18.238Z,101578.50
2022-08-05T13:53:50.175Z,101586.94
2022-08-05T13:55:41.261Z,101579.16
2022-08-05T13:57:16.293Z,101576.59
2022-08-05T13:58:53.155Z,101586.63
2022-08-05T14:00:27.156Z,101587.44
2022-08-05T14:02:00.806Z,101589.25
2022-08-05T14:03:32.869Z,101576.34
2022-08-05T14:05:11.708Z,101584.25
2022-08-05T14:06:47.713Z,101587.19
2022-08-05T14:08:27.732Z,101586.72
2022-08-05T14:10:00.796Z,101582.56
2022-08-05T14:11:32.661Z,101586.97
2022-08-05T14:13:25.429Z,101585.22
2022-08-05T14:14:58.348Z,101585.00
2022-08-05T14:16:30.150Z,101584.75
2022-08-05T14:18:02.912Z,101580.00
2022-08-05T14:19:54.214Z,101587.44
2022-08-05T14:22:10.245Z,101581.81
2022-08-05T14:23:25.015Z,101580.84
2022-08-05T14:24:59.449Z,101592.81
2022-08-05T14:26:35.777Z,101582.81
2022-08-05T14:28:15.959Z,101583.56
2022-08-05T14:29:59.233Z,101584.88
2022-08-05T14:32:03.673Z,101585.13
2022-08-05T14:33:23.880Z,101572.53
2022-08-05T14:34:56.861Z,101573.06
2022-08-05T14:36:31.038Z,101576.59
2022-08-05T14:38:03.211Z,101581.97
2022-08-05T14:39:49.277Z,101583.56
2022-08-05T14:41:32.393Z,101573.50
2022-08-05T14:43:04.566Z,101582.31
2022-08-05T14:44:42.997Z,101576.03
2022-08-05T14:46:14.881Z,101585.25
2022-08-05T14:48:03.475Z,101579.88
2022-08-05T14:49:59.083Z,101574.06
2022-08-05T14:51:42.635Z,101573.13
2022-08-05T14:53:15.647Z,101569.50
2022-08-05T14:54:52.840Z,101577.47
2022-08-05T14:56:25.249Z,101571.25
2022-08-05T14:57:57.753Z,101573.53
2022-08-05T14:59:35.344Z,101576.38
2022-08-05T15:01:16.093Z,101578.09
2022-08-05T15:02:49.447Z,101584.41
2022-08-05T15:04:22.890Z,101583.53
2022-08-05T15:06:07.695Z,101581.19
2022-08-05T15:08:06.188Z,101576.09
2022-08-05T15:09:53.884Z,101573.66
2022-08-05T15:11:51.681Z,101572.81
2022-08-05T15:13:18.205Z,101571.66
2022-08-05T15:14:50.754Z,101577.38
2022-08-05T15:16:22.561Z,101581.63
2022-08-05T15:17:54.541Z,101586.34
2022-08-05T15:19:26.515Z,101581.91
2022-08-05T15:20:58.234Z,101575.50
2022-08-05T15:22:40.124Z,101576.88
2022-08-05T15:24:17.959Z,101582.38
2022-08-05T15:25:55.887Z,101580.38
2022-08-05T15:27:35.894Z,101585.25
2022-08-05T15:29:07.932Z,101580.72
2022-08-05T15:30:39.834Z,101582.69
2022-08-05T15:32:11.578Z,101588.41
2022-08-05T15:34:19.025Z,101589.31
2022-08-05T15:35:36.001Z,101597.53
2022-08-05T15:37:14.750Z,101584.84
2022-08-05T15:38:47.969Z,101591.22
2022-08-05T15:41:03.884Z,101582.41
2022-08-05T15:42:49.812Z,101586.13
2022-08-05T15:44:05.559Z,101581.72
2022-08-05T15:45:38.327Z,101587.97
2022-08-05T15:47:11.635Z,101591.13
2022-08-05T15:48:52.821Z,101584.34
2022-08-05T15:50:32.420Z,101593.34
2022-08-05T15:52:13.177Z,101586.56
2022-08-05T15:53:57.030Z,101589.66
2022-08-05T15:56:03.043Z,101592.41
2022-08-05T15:57:25.491Z,101587.03
2022-08-05T15:59:04.777Z,101591.31
2022-08-05T16:00:50.278Z,101593.44
2022-08-05T16:02:28.803Z,101593.34
2022-08-05T16:04:00.893Z,101601.47
2022-08-05T16:05:32.720Z,101599.09
2022-08-05T16:07:04.597Z,101600.91
2022-08-05T16:08:37.689Z,101602.94
2022-08-05T16:10:11.652Z,101611.09
2022-08-05T16:11:49.685Z,101604.59
2022-08-05T16:13:32.041Z,101607.47
2022-08-05T16:15:07.062Z,101614.53
2022-08-05T16:16:41.347Z,101616.38
2022-08-05T16:18:13.108Z,101619.50
2022-08-05T16:20:05.323Z,101612.00
2022-08-05T16:21:58.645Z,101613.72
2022-08-05T16:23:32.896Z,101614.19
2022-08-05T16:25:21.408Z,101617.25
2022-08-05T16:26:56.338Z,101616.22
2022-08-05T16:28:28.229Z,101617.84
2022-08-05T16:30:00.199Z,101620.75
2022-08-05T16:31:56.715Z,101620.53
2022-08-05T16:33:23.898Z,101615.53
2022-08-05T16:34:59.081Z,101635.25
2022-08-05T16:36:30.945Z,101628.53
2022-08-05T16:38:24.298Z,101626.38
2022-08-05T16:40:04.688Z,101638.63
2022-08-05T16:42:14.561Z,101642.47
2022-08-05T16:43:35.269Z,101639.69
2022-08-05T16:46:04.608Z,101650.91
2022-08-05T16:46:59.935Z,101648.44
2022-08-05T16:48:33.394Z,101651.03
2022-08-05T16:50:09.947Z,101651.53
2022-08-05T16:51:51.334Z,101651.53
2022-08-05T16:53:32.171Z,101653.31
2022-08-05T16:55:05.411Z,101665.84
2022-08-05T16:56:38.120Z,101660.31
2022-08-05T16:58:13.571Z,101660.97
2022-08-05T17:00:01.393Z,101659.63
2022-08-05T17:01:54.588Z,101666.34
2022-08-05T17:03:26.608Z,101666.25
2022-08-05T17:04:59.658Z,101663.53
2022-08-05T17:06:31.830Z,101663.56
2022-08-05T17:08:03.886Z,101664.44
2022-08-05T17:09:57.699Z,101671.41
2022-08-05T17:11:27.686Z,101671.84
2022-08-05T17:12:59.383Z,101672.09
2022-08-05T17:14:34.450Z,101674.09
2022-08-05T17:16:32.714Z,101673.56
2022-08-05T17:18:02.790Z,101679.31
2022-08-05T17:19:34.861Z,101683.50
2022-08-05T17:21:06.553Z,101681.16
2022-08-05T17:22:38.291Z,101685.19
2022-08-05T17:24:30.196Z,101693.03
2022-08-05T17:26:04.443Z,101689.25
2022-08-05T17:27:36.268Z,101689.13
2022-08-05T17:29:10.081Z,101696.47
2022-08-05T17:30:51.792Z,101692.19
2022-08-05T17:32:25.351Z,101694.72
2022-08-05T17:33:58.683Z,101686.41
2022-08-05T17:35:32.575Z,101693.00
2022-08-05T17:37:40.486Z,101691.06
2022-08-05T17:39:23.961Z,101696.94
2022-08-05T17:41:01.554Z,101696.16
2022-08-05T17:42:34.134Z,101700.69
2022-08-05T17:44:13.640Z,101705.03
2022-08-05T17:45:48.383Z,101706.91
2022-08-05T17:47:25.865Z,101707.41
2022-08-05T17:48:58.103Z,101705.19
2022-08-05T17:50:30.834Z,101710.09
2022-08-05T17:52:02.804Z,101706.31
2022-08-05T17:53:35.916Z,101709.75
2022-08-05T17:55:10.304Z,101716.34
2022-08-05T17:56:42.731Z,101714.47
2022-08-05T17:58:16.733Z,101712.63
2022-08-05T17:59:53.983Z,101718.09
2022-08-05T18:01:49.598Z,101729.03
2022-08-05T18:03:56.538Z,101722.72
2022-08-05T18:05:18.123Z,101731.59
2022-08-05T18:06:50.113Z,101731.09
2022-08-05T18:08:21.961Z,101733.38
2022-08-05T18:10:00.465Z,101746.06
2022-08-05T18:11:34.021Z,101739.50
2022-08-05T18:13:07.695Z,101741.72
2022-08-05T18:14:44.313Z,101740.00
2022-08-05T18:16:20.447Z,101747.81
2022-08-05T18:17:58.712Z,101748.41
2022-08-05T18:19:35.979Z,101746.16
2022-08-05T18:21:13.109Z,101758.06
2022-08-05T18:22:54.478Z,101757.91
2022-08-05T18:24:29.021Z,101768.84
2022-08-05T18:26:01.133Z,101767.44
2022-08-05T18:27:33.987Z,101760.91
2022-08-05T18:29:10.390Z,101763.06
2022-08-05T18:30:42.318Z,101766.47
2022-08-05T18:32:14.175Z,101779.91
2022-08-05T18:33:49.710Z,101776.91
2022-08-05T18:35:49.366Z,101788.69
2022-08-05T18:37:16.960Z,101792.16
2022-08-05T18:39:09.732Z,101788.94
2022-08-05T18:41:55.605Z,101786.91
2022-08-05T18:42:46.450Z,101792.66
2022-08-05T18:44:33.304Z,101794.59
2022-08-05T18:46:07.322Z,101800.59
2022-08-05T18:47:41.559Z,101792.91
2022-08-05T18:49:57.398Z,101801.66
2022-08-05T18:52:05.558Z,101794.84
2022-08-05T18:53:45.737Z,101799.19
2022-08-05T18:55:22.224Z,101797.38
2022-08-05T18:56:54.135Z,101800.19
2022-08-05T18:58:28.688Z,101809.16
2022-08-05T19:00:04.058Z,101808.19
2022-08-05T19:01:47.950Z,101810.88
2022-08-05T19:03:52.868Z,101810.25
2022-08-05T19:06:12.873Z,101817.28